createdAt,value
2022-10-23T00:01:29.637Z,97266.03
2022-10-23T00:04:00.165Z,97268.44
2022-10-23T00:06:29.511Z,97268.72
2022-10-23T00:08:58.860Z,97266.03
2022-10-23T00:11:28.954Z,97261.25
2022-10-23T00:13:59.015Z,97261.25
2022-10-23T00:16:27.525Z,97260.66
2022-10-23T00:18:55.535Z,97256.06
2022-10-23T00:21:24.272Z,97254.78
2022-10-23T00:23:52.836Z,97254.97
2022-10-23T00:26:22.334Z,97255.34
2022-10-23T00:28:51.869Z,97256.16
2022-10-23T00:31:21.272Z,97259.13
2022-10-23T00:33:49.706Z,97257.25
2022-10-23T00:36:19.554Z,97259.13
2022-10-23T00:38:48.000Z,97260.25
2022-10-23T00:41:20.056Z,97257.03
2022-10-23T00:44:02.338Z,97273.19
2022-10-23T00:46:30.651Z,97275.88
2022-10-23T00:48:59.162Z,97274.25
2022-10-23T00:51:29.661Z,97272.16
2022-10-23T00:54:12.939Z,97268.16
2022-10-23T00:56:48.203Z,97270.34
2022-10-23T00:59:17.563Z,97263.94
2022-10-23T01:01:46.360Z,97268.53
2022-10-23T01:04:14.398Z,97267.53
2022-10-23T01:06:47.476Z,97271.28
2022-10-23T01:09:20.413Z,97275.06
2022-10-23T01:11:53.742Z,97281.03
2022-10-23T01:14:29.031Z,97282.78
2022-10-23T01:17:01.961Z,97282.22
2022-10-23T01:19:44.578Z,97275.22
2022-10-23T01:22:22.812Z,97275.00
2022-10-23T01:24:56.854Z,97279.34
2022-10-23T01:27:28.281Z,97278.00
2022-10-23T01:30:06.008Z,97277.69
2022-10-23T01:32:42.911Z,97264.56
2022-10-23T01:35:14.667Z,97257.28
2022-10-23T01:37:45.361Z,97246.22
2022-10-23T01:40:21.948Z,97242.25
2022-10-23T01:42:54.562Z,97244.69
2022-10-23T01:45:31.362Z,97249.59
2022-10-23T01:48:01.365Z,97241.53
2022-10-23T01:50:30.608Z,97238.31
2022-10-23T01:53:04.164Z,97234.09
2022-10-23T01:55:33.873Z,97237.59
2022-10-23T01:58:08.455Z,97232.00
2022-10-23T02:00:41.976Z,97229.06
2022-10-23T02:03:16.710Z,97229.34
2022-10-23T02:05:46.589Z,97229.88
2022-10-23T02:08:14.810Z,97230.97
2022-10-23T02:10:46.833Z,97224.31
2022-10-23T02:13:20.606Z,97224.06
2022-10-23T02:15:50.536Z,97231.03
2022-10-23T02:18:29.081Z,97221.91
2022-10-23T02:21:00.558Z,97216.53
2022-10-23T02:23:33.081Z,97215.50
2022-10-23T02:26:05.491Z,97205.25
2022-10-23T02:28:39.923Z,97201.75
2022-10-23T02:31:11.196Z,97203.97
2022-10-23T02:33:39.607Z,97206.94
2022-10-23T02:36:08.361Z,97203.44
2022-10-23T02:38:38.333Z,97206.72
2022-10-23T02:41:20.793Z,97205.91
2022-10-23T02:43:58.801Z,97209.69
2022-10-23T02:46:32.451Z,97211.84
2022-10-23T02:49:08.688Z,97203.88
2022-10-23T02:51:45.969Z,97200.38
2022-10-23T02:54:21.881Z,97197.78
2022-10-23T02:56:54.622Z,97195.44
2022-10-23T02:59:27.882Z,97187.38
2022-10-23T03:02:01.691Z,97184.69
2022-10-23T03:04:30.783Z,97181.50
2022-10-23T03:06:58.863Z,97189.06
2022-10-23T03:09:27.957Z,97182.63
2022-10-23T03:11:57.254Z,97188.59
2022-10-23T03:14:26.745Z,97188.00
2022-10-23T03:16:54.729Z,97181.63
2022-10-23T03:19:22.881Z,97176.38
2022-10-23T03:21:50.922Z,97180.13
2022-10-23T03:24:18.954Z,97180.72
2022-10-23T03:26:47.514Z,97188.78
2022-10-23T03:29:15.506Z,97184.47
2022-10-23T03:31:47.911Z,97185.28
2022-10-23T03:34:16.866Z,97183.44
2022-10-23T03:36:44.834Z,97187.50
2022-10-23T03:39:12.881Z,97186.19
2022-10-23T03:41:40.844Z,97198.31
2022-10-23T03:44:09.132Z,97195.31
2022-10-23T03:46:37.105Z,97187.84
2022-10-23T03:49:06.793Z,97184.38
2022-10-23T03:51:34.790Z,97183.22
2022-10-23T03:54:02.853Z,97181.88
2022-10-23T03:56:31.048Z,97179.22
2022-10-23T03:59:00.750Z,97177.41
2022-10-23T04:01:28.962Z,97179.28
2022-10-23T04:03:57.035Z,97173.03
2022-10-23T04:06:28.441Z,97168.25
2022-10-23T04:08:58.735Z,97170.16
2022-10-23T04:11:26.850Z,97161.09
2022-10-23T04:13:54.862Z,97158.97
2022-10-23T04:16:25.071Z,97162.22
2022-10-23T04:18:53.527Z,97163.25
2022-10-23T04:21:21.690Z,97158.16
2022-10-23T04:23:51.005Z,97163.59
2022-10-23T04:26:19.854Z,97170.03
2022-10-23T04:28:47.855Z,97169.88
2022-10-23T04:31:16.830Z,97168.81
2022-10-23T04:33:45.021Z,97173.69
2022-10-23T04:36:26.836Z,97169.63
2022-10-23T04:38:56.150Z,97156.19
2022-10-23T04:41:24.228Z,97165.06
2022-10-23T04:43:52.310Z,97170.94
2022-10-23T04:46:20.368Z,97163.47
2022-10-23T04:48:49.856Z,97165.91
2022-10-23T04:51:27.894Z,97159.22
2022-10-23T04:54:05.627Z,97161.63
2022-10-23T04:56:56.188Z,97153.66
2022-10-23T04:59:24.944Z,97156.59
2022-10-23T05:01:53.124Z,97149.66
2022-10-23T05:04:21.220Z,97156.38
2022-10-23T05:07:07.931Z,97152.91
2022-10-23T05:10:00.102Z,97158.84
2022-10-23T05:12:35.242Z,97150.22
2022-10-23T05:15:05.525Z,97150.75
2022-10-23T05:17:36.394Z,97139.72
2022-10-23T05:20:08.972Z,97155.03
2022-10-23T05:22:38.379Z,97164.72
2022-10-23T05:25:12.919Z,97158.84
2022-10-23T05:27:45.416Z,97159.13
2022-10-23T05:30:15.459Z,97156.72
2022-10-23T05:32:43.773Z,97152.44
2022-10-23T05:35:15.259Z,97149.75
2022-10-23T05:37:48.611Z,97151.34
2022-10-23T05:40:24.770Z,97151.94
2022-10-23T05:42:59.361Z,97151.41
2022-10-23T05:45:38.186Z,97137.94
2022-10-23T05:48:34.395Z,97134.72
2022-10-23T05:51:23.315Z,97127.50
2022-10-23T05:53:59.676Z,97128.31
2022-10-23T05:56:36.661Z,97126.69
2022-10-23T05:59:27.384Z,97128.31
2022-10-23T06:02:21.286Z,97127.22
2022-10-23T06:05:07.137Z,97130.13
2022-10-23T06:07:53.466Z,97134.41
2022-10-23T06:10:21.443Z,97138.47
2022-10-23T06:12:53.756Z,97137.41
2022-10-23T06:15:21.833Z,97144.84
2022-10-23T06:18:01.737Z,97148.06
2022-10-23T06:20:31.368Z,97151.03
2022-10-23T06:23:09.162Z,97160.16
2022-10-23T06:25:56.571Z,97162.78
2022-10-23T06:28:34.247Z,97171.13
2022-10-23T06:31:05.632Z,97163.09
2022-10-23T06:33:33.671Z,97155.03
2022-10-23T06:36:05.534Z,97148.06
2022-10-23T06:38:36.832Z,97149.16
2022-10-23T06:41:06.899Z,97148.56
2022-10-23T06:43:39.857Z,97150.16
2022-10-23T06:46:26.858Z,97149.09
2022-10-23T06:49:18.183Z,97156.56
2022-10-23T06:51:49.109Z,97162.44
2022-10-23T06:54:21.965Z,97161.34
2022-10-23T06:56:49.906Z,97161.88
2022-10-23T06:59:32.590Z,97165.59
2022-10-23T07:02:02.186Z,97169.59
2022-10-23T07:04:30.278Z,97161.75
2022-10-23T07:06:59.280Z,97158.81
2022-10-23T07:09:36.608Z,97151.50
2022-10-23T07:12:25.007Z,97152.50
2022-10-23T07:15:09.726Z,97153.53
2022-10-23T07:17:37.670Z,97141.72
2022-10-23T07:20:06.393Z,97144.38
2022-10-23T07:22:35.012Z,97142.22
2022-10-23T07:25:10.401Z,97132.84
2022-10-23T07:27:40.296Z,97136.34
2022-10-23T07:30:13.606Z,97144.31
2022-10-23T07:32:47.428Z,97137.88
2022-10-23T07:35:37.001Z,97130.06
2022-10-23T07:38:13.771Z,97136.16
2022-10-23T07:40:46.007Z,97147.41
2022-10-23T07:43:18.392Z,97154.28
2022-10-23T07:45:49.641Z,97149.53
2022-10-23T07:48:27.276Z,97148.88
2022-10-23T07:51:03.059Z,97138.38
2022-10-23T07:53:31.975Z,97151.47
2022-10-23T07:56:15.976Z,97149.25
2022-10-23T07:59:19.408Z,97148.09
2022-10-23T08:01:56.249Z,97148.69
2022-10-23T08:04:29.161Z,97136.78
2022-10-23T08:07:03.886Z,97139.19
2022-10-23T08:09:38.820Z,97133.97
2022-10-23T08:12:07.162Z,97140.78
2022-10-23T08:14:35.183Z,97132.13
2022-10-23T08:17:05.652Z,97129.38
2022-10-23T08:19:57.674Z,97122.75
2022-10-23T08:22:28.870Z,97123.25
2022-10-23T08:24:56.951Z,97126.16
2022-10-23T08:27:26.212Z,97132.22
2022-10-23T08:29:54.168Z,97132.38
2022-10-23T08:32:23.865Z,97129.69
2022-10-23T08:35:03.412Z,97128.63
2022-10-23T08:37:33.394Z,97127.94
2022-10-23T08:40:01.901Z,97129.16
2022-10-23T08:43:01.276Z,97134.84
2022-10-23T08:45:32.538Z,97128.16
2022-10-23T08:48:16.205Z,97122.69
2022-10-23T08:51:15.560Z,97127.38
2022-10-23T08:53:48.074Z,97123.81
2022-10-23T08:56:22.266Z,97116.53
2022-10-23T08:58:54.984Z,97123.91
2022-10-23T09:01:35.616Z,97129.00
2022-10-23T09:04:05.859Z,97125.03
2022-10-23T09:06:38.431Z,97127.53
2022-10-23T09:09:21.348Z,97115.25
2022-10-23T09:11:55.361Z,97113.44
2022-10-23T09:14:41.928Z,97114.06
2022-10-23T09:17:15.805Z,97112.53
2022-10-23T09:19:48.024Z,97109.31
2022-10-23T09:22:16.004Z,97100.94
2022-10-23T09:24:44.661Z,97109.81
2022-10-23T09:27:16.693Z,97112.22
2022-10-23T09:29:50.850Z,97109.59
2022-10-23T09:32:21.411Z,97108.88
2022-10-23T09:34:55.727Z,97106.44
2022-10-23T09:37:25.489Z,97096.50
2022-10-23T09:40:04.932Z,97091.03
2022-10-23T09:42:32.942Z,97096.88
2022-10-23T09:45:01.837Z,97086.47
2022-10-23T09:47:29.994Z,97076.22
2022-10-23T09:49:59.536Z,97073.59
2022-10-23T09:52:32.473Z,97068.56
2022-10-23T09:55:01.908Z,97072.38
2022-10-23T09:57:32.570Z,97067.63
2022-10-23T10:00:02.765Z,97069.28
2022-10-23T10:02:39.764Z,97063.16
2022-10-23T10:05:35.657Z,97054.91
2022-10-23T10:08:11.935Z,97054.16
2022-10-23T10:10:42.533Z,97053.88
2022-10-23T10:13:21.464Z,97047.84
2022-10-23T10:15:53.236Z,97052.47
2022-10-23T10:18:25.737Z,97054.88
2022-10-23T10:21:04.809Z,97049.31
2022-10-23T10:23:37.937Z,97055.88
2022-10-23T10:26:15.772Z,97054.16
2022-10-23T10:28:55.546Z,97046.69
2022-10-23T10:31:27.750Z,97043.19
2022-10-23T10:34:03.827Z,97034.47
2022-10-23T10:36:42.837Z,97036.53
2022-10-23T10:39:30.737Z,97040.38
2022-10-23T10:42:26.560Z,97037.31
2022-10-23T10:45:16.478Z,97040.03
2022-10-23T10:47:51.866Z,97030.81
2022-10-23T10:50:28.883Z,97029.59
2022-10-23T10:53:21.814Z,97027.03
2022-10-23T10:55:52.031Z,97020.81
2022-10-23T10:58:23.495Z,97032.72
2022-10-23T11:00:54.323Z,97019.69
2022-10-23T11:03:30.516Z,97008.38
2022-10-23T11:08:49.784Z,97005.66
2022-10-23T11:11:26.117Z,97000.25
2022-10-23T11:13:54.251Z,97000.53
2022-10-23T11:16:24.848Z,96984.13
2022-10-23T11:19:02.631Z,96993.53
2022-10-23T11:21:36.613Z,96990.16
2022-10-23T11:24:30.442Z,96985.03
2022-10-23T11:27:12.883Z,96978.63
2022-10-23T11:29:51.795Z,96964.78
2022-10-23T11:35:25.469Z,96957.41
2022-10-23T11:38:01.672Z,96953.75
2022-10-23T11:40:31.106Z,96954.16
2022-10-23T11:42:59.051Z,96957.66
2022-10-23T11:45:29.390Z,96962.88
2022-10-23T11:47:59.289Z,96948.06
2022-10-23T11:50:32.743Z,96934.81
2022-10-23T11:53:20.873Z,96940.44
2022-10-23T11:56:06.699Z,96938.34
2022-10-23T11:58:45.743Z,96928.59
2022-10-23T12:01:25.286Z,96929.31
2022-10-23T12:03:55.327Z,96919.88
2022-10-23T12:06:26.575Z,96933.69
2022-10-23T12:08:57.391Z,96926.81
2022-10-23T12:11:42.418Z,96918.69
2022-10-23T12:14:31.369Z,96912.94
2022-10-23T12:16:59.492Z,96918.94
2022-10-23T12:19:29.115Z,96902.81
2022-10-23T12:22:00.538Z,96906.44
2022-10-23T12:24:39.685Z,96903.09
2022-10-23T12:27:17.516Z,96896.34
2022-10-23T12:29:59.413Z,96902.66
2022-10-23T12:32:34.555Z,96899.28
2022-10-23T12:35:22.462Z,96896.16
2022-10-23T12:38:04.137Z,96903.41
2022-10-23T12:40:32.340Z,96892.69
2022-10-23T12:43:02.153Z,96900.38
2022-10-23T12:45:31.646Z,96883.56
2022-10-23T12:48:00.673Z,96889.56
2022-10-23T12:50:31.751Z,96887.75
2022-10-23T12:53:02.335Z,96878.63
2022-10-23T12:55:36.178Z,96871.09
2022-10-23T12:58:05.528Z,96877.94
2022-10-23T13:00:33.597Z,96872.03
2022-10-23T13:03:03.368Z,96865.06
2022-10-23T13:05:31.889Z,96864.88
2022-10-23T13:08:01.364Z,96864.97
2022-10-23T13:10:42.883Z,96855.16
2022-10-23T13:13:13.979Z,96860.56
2022-10-23T13:15:42.990Z,96850.28
2022-10-23T13:18:14.115Z,96855.47
2022-10-23T13:20:43.649Z,96853.47
2022-10-23T13:23:17.520Z,96863.41
2022-10-23T13:25:54.212Z,96855.81
2022-10-23T13:28:25.991Z,96847.47
2022-10-23T13:31:03.034Z,96855.50
2022-10-23T13:33:36.821Z,96845.91
2022-10-23T13:36:07.276Z,96846.31
2022-10-23T13:38:36.788Z,96846.56
2022-10-23T13:41:10.253Z,96840.66
2022-10-23T13:43:39.703Z,96830.50
2022-10-23T13:46:14.254Z,96826.34
2022-10-23T13:48:42.234Z,96837.28
2022-10-23T13:51:13.905Z,96828.25
2022-10-23T13:53:41.952Z,96833.78
2022-10-23T13:56:12.357Z,96826.19
2022-10-23T13:58:41.997Z,96834.09
2022-10-23T14:01:14.053Z,96828.91
2022-10-23T14:03:42.070Z,96830.72
2022-10-23T14:06:10.102Z,96825.28
2022-10-23T14:08:38.080Z,96823.00
2022-10-23T14:11:06.208Z,96823.22
2022-10-23T14:13:34.191Z,96822.09
2022-10-23T14:16:03.505Z,96828.00
2022-10-23T14:18:31.555Z,96822.34
2022-10-23T14:21:01.071Z,96819.38
2022-10-23T14:23:29.210Z,96815.09
2022-10-23T14:26:03.037Z,96812.94
2022-10-23T14:28:31.048Z,96819.03
2022-10-23T14:31:00.335Z,96819.59
2022-10-23T14:33:29.615Z,96818.81
2022-10-23T14:35:57.568Z,96821.41
2022-10-23T14:38:25.774Z,96825.44
2022-10-23T14:40:53.853Z,96813.13
2022-10-23T14:43:22.350Z,96816.06
2022-10-23T14:45:50.372Z,96816.88
2022-10-23T14:48:18.493Z,96816.97
2022-10-23T14:50:49.140Z,96812.53
2022-10-23T14:53:17.178Z,96812.00
2022-10-23T14:55:45.206Z,96803.72
2022-10-23T14:58:13.194Z,96798.28
2022-10-23T15:00:41.205Z,96792.63
2022-10-23T15:03:09.157Z,96786.53
2022-10-23T15:05:42.428Z,96789.28
2022-10-23T15:08:11.710Z,96792.47
2022-10-23T15:10:40.067Z,96791.66
2022-10-23T15:13:08.039Z,96802.44
2022-10-23T15:15:36.000Z,96791.31
2022-10-23T15:18:03.992Z,96796.78
2022-10-23T15:20:32.039Z,96788.84
2022-10-23T15:23:00.820Z,96786.56
2022-10-23T15:25:30.498Z,96787.25
2022-10-23T15:27:59.540Z,96784.75
2022-10-23T15:30:27.629Z,96793.13
2022-10-23T15:32:55.705Z,96785.69
2022-10-23T15:35:24.400Z,96778.91
2022-10-23T15:37:52.389Z,96780.50
2022-10-23T15:40:20.305Z,96767.03
2022-10-23T15:42:50.720Z,96780.28
2022-10-23T15:45:18.807Z,96774.94
2022-10-23T15:47:46.814Z,96772.22
2022-10-23T15:50:14.751Z,96773.25
2022-10-23T15:52:43.011Z,96770.78
2022-10-23T15:55:12.402Z,96765.13
2022-10-23T15:57:40.435Z,96766.50
2022-10-23T16:00:11.647Z,96775.78
2022-10-23T16:02:39.637Z,96776.22
2022-10-23T16:05:08.172Z,96770.47
2022-10-23T16:07:36.191Z,96768.09
2022-10-23T16:10:04.627Z,96764.13
2022-10-23T16:12:32.557Z,96771.69
2022-10-23T16:15:00.527Z,96767.88
2022-10-23T16:17:29.808Z,96771.69
2022-10-23T16:19:57.748Z,96768.78
2022-10-23T16:22:25.667Z,96769.47
2022-10-23T16:24:53.638Z,96773.75
2022-10-23T16:27:46.964Z,96771.28
2022-10-23T16:30:16.286Z,96771.84
2022-10-23T16:32:45.608Z,96759.03
2022-10-23T16:35:13.716Z,96753.38
2022-10-23T16:37:55.562Z,96760.16
2022-10-23T16:40:24.218Z,96756.78
2022-10-23T16:43:10.762Z,96758.78
2022-10-23T16:45:44.780Z,96775.28
2022-10-23T16:48:14.377Z,96775.06
2022-10-23T16:50:42.791Z,96766.44
2022-10-23T16:53:10.731Z,96751.34
2022-10-23T16:55:41.574Z,96749.28
2022-10-23T16:58:09.553Z,96754.47
2022-10-23T17:00:37.657Z,96764.22
2022-10-23T17:03:06.285Z,96770.31
2022-10-23T17:05:35.919Z,96769.59
2022-10-23T17:08:03.919Z,96759.63
2022-10-23T17:10:31.912Z,96770.72
2022-10-23T17:12:59.928Z,96774.69
2022-10-23T17:15:28.555Z,96776.63
2022-10-23T17:17:57.974Z,96772.75
2022-10-23T17:20:25.981Z,96769.25
2022-10-23T17:22:55.365Z,96778.16
2022-10-23T17:25:23.367Z,96770.47
2022-10-23T17:27:51.286Z,96767.88
2022-10-23T17:30:19.281Z,96758.91
2022-10-23T17:32:47.507Z,96769.75
2022-10-23T17:35:15.848Z,96764.22
2022-10-23T17:37:43.818Z,96769.38
2022-10-23T17:40:14.127Z,96768.50
2022-10-23T17:42:42.965Z,96769.50
2022-10-23T17:45:11.705Z,96774.91
2022-10-23T17:47:41.109Z,96781.59
2022-10-23T17:50:12.234Z,96769.50
2022-10-23T17:52:40.456Z,96772.22
2022-10-23T17:55:09.309Z,96777.03
2022-10-23T17:57:38.660Z,96784.38
2022-10-23T18:00:07.780Z,96785.16
2022-10-23T18:02:40.435Z,96787.09
2022-10-23T18:05:08.951Z,96789.00
2022-10-23T18:07:36.940Z,96792.81
2022-10-23T18:10:05.529Z,96804.81
2022-10-23T18:12:33.480Z,96808.63
2022-10-23T18:15:03.096Z,96807.03
2022-10-23T18:17:31.047Z,96797.66
2022-10-23T18:20:01.998Z,96791.97
2022-10-23T18:22:33.060Z,96798.94
2022-10-23T18:25:01.541Z,96784.66
2022-10-23T18:27:29.527Z,96776.00
2022-10-23T18:29:57.490Z,96776.19
2022-10-23T18:32:27.883Z,96789.34
2022-10-23T18:34:55.879Z,96773.81
2022-10-23T18:37:26.823Z,96782.06
2022-10-23T18:39:56.744Z,96756.31
2022-10-23T18:42:24.656Z,96787.88
2022-10-23T18:44:52.576Z,96796.66
2022-10-23T18:47:20.589Z,96778.31
2022-10-23T18:49:49.978Z,96778.94
2022-10-23T18:52:17.974Z,96772.28
2022-10-23T18:54:46.006Z,96794.31
2022-10-23T18:57:13.931Z,96819.88
2022-10-23T18:59:41.900Z,96774.31
2022-10-23T19:02:11.736Z,96761.88
2022-10-23T19:04:39.769Z,96794.69
2022-10-23T19:07:09.110Z,96775.03
2022-10-23T19:09:37.104Z,96777.81
2022-10-23T19:12:05.887Z,96784.13
2022-10-23T19:14:33.915Z,96781.25
2022-10-23T19:17:03.700Z,96773.47
2022-10-23T19:19:33.305Z,96780.59
2022-10-23T19:22:01.877Z,96790.31
2022-10-23T19:24:33.685Z,96793.00
2022-10-23T19:27:02.428Z,96779.00
2022-10-23T19:29:30.956Z,96774.44
2022-10-23T19:31:58.996Z,96769.50
2022-10-23T19:34:27.384Z,96774.44
2022-10-23T19:36:55.654Z,96762.50
2022-10-23T19:39:25.787Z,96768.09
2022-10-23T19:41:55.809Z,96761.31
2022-10-23T19:44:23.822Z,96754.81
2022-10-23T19:46:52.070Z,96761.31
2022-10-23T19:49:20.338Z,96771.47
2022-10-23T19:51:51.369Z,96771.47
2022-10-23T19:54:19.992Z,96766.88
2022-10-23T19:56:48.374Z,96784.22
2022-10-23T19:59:18.018Z,96787.03
2022-10-23T20:01:47.904Z,96782.31
2022-10-23T20:04:17.077Z,96777.72
2022-10-23T20:06:45.079Z,96775.69
2022-10-23T20:09:13.298Z,96781.69
2022-10-23T20:11:41.477Z,96784.53
2022-10-23T20:14:09.511Z,96790.06
2022-10-23T20:16:40.187Z,96793.56
2022-10-23T20:19:10.887Z,96781.16
2022-10-23T20:21:41.081Z,96790.84
2022-10-23T20:24:09.780Z,96798.66
2022-10-23T20:26:40.513Z,96799.94
2022-10-23T20:29:08.577Z,96794.34
2022-10-23T20:32:03.643Z,96801.56
2022-10-23T20:34:31.634Z,96809.97
2022-10-23T20:37:00.640Z,96819.38
2022-10-23T20:39:29.775Z,96827.94
2022-10-23T20:41:58.210Z,96828.28
2022-10-23T20:44:26.308Z,96834.13
2022-10-23T20:46:54.339Z,96824.91
2022-10-23T20:49:24.494Z,96834.47
2022-10-23T20:51:55.190Z,96828.72
2022-10-23T20:54:23.824Z,96850.38
2022-10-23T20:56:51.832Z,96843.91
2022-10-23T20:59:20.560Z,96833.88
2022-10-23T21:01:50.613Z,96828.81
2022-10-23T21:04:20.428Z,96837.44
2022-10-23T21:07:08.868Z,96870.47
2022-10-23T21:09:38.000Z,96877.84
2022-10-23T21:12:07.424Z,96891.19
2022-10-23T21:14:35.762Z,96878.47
2022-10-23T21:17:04.318Z,96909.63
2022-10-23T21:19:32.408Z,96936.72
2022-10-23T21:22:01.746Z,96951.47
2022-10-23T21:24:29.734Z,96951.50
2022-10-23T21:26:57.740Z,96952.13
2022-10-23T21:29:25.702Z,96953.53
2022-10-23T21:31:55.221Z,96938.13
2022-10-23T21:34:23.426Z,96930.19
2022-10-23T21:37:11.782Z,96934.63
2022-10-23T21:39:40.947Z,96937.81
2022-10-23T21:42:09.451Z,96928.72
2022-10-23T21:44:37.506Z,96926.50
2022-10-23T21:47:05.950Z,96936.66
2022-10-23T21:49:33.935Z,96938.13
2022-10-23T21:52:01.942Z,96938.75
2022-10-23T21:54:29.910Z,96947.03
2022-10-23T21:56:59.204Z,96953.22
2022-10-23T21:59:30.271Z,96963.25
2022-10-23T22:01:59.965Z,96982.19
2022-10-23T22:04:28.128Z,96979.97
2022-10-23T22:06:56.100Z,96978.66
2022-10-23T22:09:24.314Z,96977.72
2022-10-23T22:11:53.499Z,96976.31
2022-10-23T22:14:23.972Z,96983.72
2022-10-23T22:16:53.097Z,96978.22
2022-10-23T22:19:22.699Z,96982.50
2022-10-23T22:21:51.955Z,96979.97
2022-10-23T22:24:20.478Z,96980.56
2022-10-23T22:26:51.082Z,96973.25
2022-10-23T22:29:22.644Z,96981.69
2022-10-23T22:31:51.028Z,96996.97
2022-10-23T22:34:34.832Z,96992.00
2022-10-23T22:37:10.453Z,96995.19
2022-10-23T22:39:39.737Z,96998.22
2022-10-23T22:42:08.179Z,97009.03
2022-10-23T22:44:37.527Z,97004.09
2022-10-23T22:47:06.294Z,97007.59
2022-10-23T22:49:34.279Z,97005.22
2022-10-23T22:52:02.302Z,97023.81
2022-10-23T22:54:31.426Z,97031.44
2022-10-23T22:56:59.564Z,97032.56
2022-10-23T22:59:27.722Z,97042.75
2022-10-23T23:01:57.176Z,97056.25
2022-10-23T23:04:37.321Z,97062.44
2022-10-23T23:07:06.751Z,97062.94
2022-10-23T23:09:37.623Z,97064.53
2022-10-23T23:12:06.201Z,97073.09
2022-10-23T23:14:34.287Z,97063.38
2022-10-23T23:17:03.616Z,97077.69
2022-10-23T23:19:31.683Z,97073.41
2022-10-23T23:22:00.197Z,97076.44
2022-10-23T23:24:28.458Z,97089.16
2022-10-23T23:26:56.413Z,97076.91
2022-10-23T23:29:24.356Z,97073.56
2022-10-23T23:31:52.339Z,97064.53
2022-10-23T23:34:22.114Z,97069.28
2022-10-23T23:36:50.081Z,97072.47
2022-10-23T23:39:18.557Z,97077.88
2022-10-23T23:41:46.522Z,97072.47
2022-10-23T23:44:14.602Z,97072.47
2022-10-23T23:46:42.680Z,97068.47
2022-10-23T23:49:10.664Z,97070.09
2022-10-23T23:51:40.034Z,97075.19
2022-10-23T23:54:08.065Z,97068.97
2022-10-23T23:56:36.298Z,97063.41
2022-10-23T23:59:04.560Z,97071.81
